Liledown, North Carolina
Current Conditions -  °F | °C
As of 6:53 AM on Friday 28 Nov 2014 (Local Time) from KHKY Reporting Station
Clear Clear  
Wind Chill: 22°   Ceiling: Unl
Heat Index: 28°   Visibility: 10mi
Dew Point: 16°   Wind: 6mph
Humidity: 61%   Direction: 290°WNW
Pressure: 30.33"   Gusts: NA
Location:  35.9243°N, 81.216°W
Report Text: KHKY 281153Z 29005KT 10SM CLR M02/M09 A3033 RMK AO2 SLP270 T10221089 11006 21033 53010
Loading
Personal Weather Stations






























Interactive Weather Map New forecast layout! Learn more

10-Day Weather Forecast

Advertisements
Track Severe Weather on mobile